sensor_id;sensor_type;location;lat;lon;timestamp;temperature;humidity
52799;DHT22;38667;42.872;74.622;2023-06-22T00:00:12;19.90;51.50
52799;DHT22;38667;42.872;74.622;2023-06-22T00:02:39;19.90;51.60
52799;DHT22;38667;42.872;74.622;2023-06-22T00:05:06;19.90;50.70
52799;DHT22;38667;42.872;74.622;2023-06-22T00:07:32;20.00;50.70
52799;DHT22;38667;42.872;74.622;2023-06-22T00:09:58;20.00;52.10
52799;DHT22;38667;42.872;74.622;2023-06-22T00:12:24;19.90;52.30
52799;DHT22;38667;42.872;74.622;2023-06-22T00:14:52;19.90;52.80
52799;DHT22;38667;42.872;74.622;2023-06-22T00:17:19;19.90;53.00
52799;DHT22;38667;42.872;74.622;2023-06-22T00:19:47;20.00;52.70
52799;DHT22;38667;42.872;74.622;2023-06-22T00:22:14;20.10;52.20
52799;DHT22;38667;42.872;74.622;2023-06-22T00:24:40;20.00;51.90
52799;DHT22;38667;42.872;74.622;2023-06-22T00:27:06;20.10;52.00
52799;DHT22;38667;42.872;74.622;2023-06-22T00:29:33;20.10;53.20
52799;DHT22;38667;42.872;74.622;2023-06-22T00:32:00;20.10;53.50
52799;DHT22;38667;42.872;74.622;2023-06-22T00:34:27;20.10;53.40
52799;DHT22;38667;42.872;74.622;2023-06-22T00:36:53;20.10;53.90
52799;DHT22;38667;42.872;74.622;2023-06-22T00:39:19;20.10;54.30
52799;DHT22;38667;42.872;74.622;2023-06-22T00:41:46;20.10;54.60
52799;DHT22;38667;42.872;74.622;2023-06-22T00:44:12;20.20;52.30
52799;DHT22;38667;42.872;74.622;2023-06-22T00:46:38;20.20;53.60
52799;DHT22;38667;42.872;74.622;2023-06-22T00:49:06;20.30;52.30
52799;DHT22;38667;42.872;74.622;2023-06-22T00:51:32;20.30;53.40
52799;DHT22;38667;42.872;74.622;2023-06-22T00:53:59;20.40;53.20
52799;DHT22;38667;42.872;74.622;2023-06-22T00:56:25;20.40;53.30
52799;DHT22;38667;42.872;74.622;2023-06-22T00:58:52;20.60;50.70
52799;DHT22;38667;42.872;74.622;2023-06-22T01:01:19;20.60;49.00
52799;DHT22;38667;42.872;74.622;2023-06-22T01:03:45;20.70;49.80
52799;DHT22;38667;42.872;74.622;2023-06-22T01:06:21;20.80;50.20
52799;DHT22;38667;42.872;74.622;2023-06-22T01:08:51;20.90;49.90
52799;DHT22;38667;42.872;74.622;2023-06-22T01:11:24;21.00;48.70
52799;DHT22;38667;42.872;74.622;2023-06-22T01:14:00;21.00;47.70
52799;DHT22;38667;42.872;74.622;2023-06-22T01:16:29;21.10;47.90
52799;DHT22;38667;42.872;74.622;2023-06-22T01:18:57;21.20;48.80
52799;DHT22;38667;42.872;74.622;2023-06-22T01:21:28;21.20;48.70
52799;DHT22;38667;42.872;74.622;2023-06-22T01:24:07;21.20;46.30
52799;DHT22;38667;42.872;74.622;2023-06-22T01:26:39;21.20;46.70
52799;DHT22;38667;42.872;74.622;2023-06-22T01:29:11;21.30;47.00
52799;DHT22;38667;42.872;74.622;2023-06-22T01:31:40;21.30;47.60
52799;DHT22;38667;42.872;74.622;2023-06-22T01:34:07;21.40;48.10
52799;DHT22;38667;42.872;74.622;2023-06-22T01:36:35;21.50;48.60
52799;DHT22;38667;42.872;74.622;2023-06-22T01:39:02;21.50;50.10
52799;DHT22;38667;42.872;74.622;2023-06-22T01:41:33;21.40;49.50
52799;DHT22;38667;42.872;74.622;2023-06-22T01:44:01;21.50;47.40
52799;DHT22;38667;42.872;74.622;2023-06-22T01:46:30;21.50;47.10
52799;DHT22;38667;42.872;74.622;2023-06-22T01:48:56;21.60;47.00
52799;DHT22;38667;42.872;74.622;2023-06-22T01:51:23;21.70;48.10
52799;DHT22;38667;42.872;74.622;2023-06-22T01:53:50;21.70;50.30
52799;DHT22;38667;42.872;74.622;2023-06-22T01:56:17;21.70;50.00
52799;DHT22;38667;42.872;74.622;2023-06-22T01:58:49;21.80;49.30
52799;DHT22;38667;42.872;74.622;2023-06-22T02:01:20;21.80;48.90
52799;DHT22;38667;42.872;74.622;2023-06-22T02:03:50;21.90;46.60
52799;DHT22;38667;42.872;74.622;2023-06-22T02:06:23;21.90;45.50
52799;DHT22;38667;42.872;74.622;2023-06-22T02:08:56;22.00;46.30
52799;DHT22;38667;42.872;74.622;2023-06-22T02:11:23;22.00;44.90
52799;DHT22;38667;42.872;74.622;2023-06-22T02:13:50;22.10;47.20
52799;DHT22;38667;42.872;74.622;2023-06-22T02:16:18;22.20;47.20
52799;DHT22;38667;42.872;74.622;2023-06-22T02:18:48;22.30;47.00
52799;DHT22;38667;42.872;74.622;2023-06-22T02:21:15;22.40;43.10
52799;DHT22;38667;42.872;74.622;2023-06-22T02:23:41;22.40;43.60
52799;DHT22;38667;42.872;74.622;2023-06-22T02:26:07;22.50;44.20
52799;DHT22;38667;42.872;74.622;2023-06-22T02:28:34;22.60;45.00
52799;DHT22;38667;42.872;74.622;2023-06-22T02:31:00;22.60;43.20
52799;DHT22;38667;42.872;74.622;2023-06-22T02:33:26;22.60;43.80
52799;DHT22;38667;42.872;74.622;2023-06-22T02:35:54;22.60;43.10
52799;DHT22;38667;42.872;74.622;2023-06-22T02:38:20;22.70;43.60
52799;DHT22;38667;42.872;74.622;2023-06-22T02:40:47;22.80;44.00
52799;DHT22;38667;42.872;74.622;2023-06-22T02:43:13;22.90;44.20
52799;DHT22;38667;42.872;74.622;2023-06-22T02:45:39;23.00;43.60
52799;DHT22;38667;42.872;74.622;2023-06-22T02:48:06;23.10;42.50
52799;DHT22;38667;42.872;74.622;2023-06-22T02:50:32;23.50;42.70
52799;DHT22;38667;42.872;74.622;2023-06-22T02:53:00;23.70;42.70
52799;DHT22;38667;42.872;74.622;2023-06-22T02:55:26;23.80;40.90
52799;DHT22;38667;42.872;74.622;2023-06-22T02:57:53;23.80;40.80
52799;DHT22;38667;42.872;74.622;2023-06-22T03:00:19;23.90;40.20
52799;DHT22;38667;42.872;74.622;2023-06-22T03:02:46;23.90;40.00
52799;DHT22;38667;42.872;74.622;2023-06-22T03:05:13;23.80;40.20
52799;DHT22;38667;42.872;74.622;2023-06-22T03:07:40;23.80;40.30
52799;DHT22;38667;42.872;74.622;2023-06-22T03:10:10;23.90;40.00
52799;DHT22;38667;42.872;74.622;2023-06-22T03:12:36;24.10;40.70
52799;DHT22;38667;42.872;74.622;2023-06-22T03:15:04;24.10;39.70
52799;DHT22;38667;42.872;74.622;2023-06-22T03:17:30;24.10;39.70
52799;DHT22;38667;42.872;74.622;2023-06-22T03:19:57;24.00;40.20
52799;DHT22;38667;42.872;74.622;2023-06-22T03:22:23;24.10;40.10
52799;DHT22;38667;42.872;74.622;2023-06-22T03:24:49;24.00;40.70
52799;DHT22;38667;42.872;74.622;2023-06-22T03:27:17;24.10;40.50
52799;DHT22;38667;42.872;74.622;2023-06-22T03:29:44;24.20;39.40
52799;DHT22;38667;42.872;74.622;2023-06-22T03:32:10;24.00;39.50
52799;DHT22;38667;42.872;74.622;2023-06-22T03:34:36;24.00;39.80
52799;DHT22;38667;42.872;74.622;2023-06-22T03:37:03;24.10;39.10
52799;DHT22;38667;42.872;74.622;2023-06-22T03:39:29;24.20;38.60
52799;DHT22;38667;42.872;74.622;2023-06-22T03:41:56;24.40;38.80
52799;DHT22;38667;42.872;74.622;2023-06-22T03:44:24;24.30;38.60
52799;DHT22;38667;42.872;74.622;2023-06-22T03:46:50;24.40;38.30
52799;DHT22;38667;42.872;74.622;2023-06-22T03:49:16;24.50;38.00
52799;DHT22;38667;42.872;74.622;2023-06-22T03:51:43;24.40;38.40
52799;DHT22;38667;42.872;74.622;2023-06-22T03:54:09;24.40;39.00
52799;DHT22;38667;42.872;74.622;2023-06-22T03:56:35;24.80;39.40
52799;DHT22;38667;42.872;74.622;2023-06-22T03:59:02;25.10;36.80
52799;DHT22;38667;42.872;74.622;2023-06-22T04:01:30;25.20;37.20
52799;DHT22;38667;42.872;74.622;2023-06-22T04:03:56;25.20;36.90
52799;DHT22;38667;42.872;74.622;2023-06-22T04:06:23;25.20;38.50
52799;DHT22;38667;42.872;74.622;2023-06-22T04:08:49;25.10;39.60
52799;DHT22;38667;42.872;74.622;2023-06-22T04:11:15;25.00;40.70
52799;DHT22;38667;42.872;74.622;2023-06-22T04:13:42;25.20;39.80
52799;DHT22;38667;42.872;74.622;2023-06-22T04:16:08;25.40;40.20
52799;DHT22;38667;42.872;74.622;2023-06-22T04:18:36;25.50;39.40
52799;DHT22;38667;42.872;74.622;2023-06-22T04:21:03;25.40;39.50
52799;DHT22;38667;42.872;74.622;2023-06-22T04:23:29;25.40;39.70
52799;DHT22;38667;42.872;74.622;2023-06-22T04:25:55;25.50;38.80
52799;DHT22;38667;42.872;74.622;2023-06-22T04:28:22;25.70;39.10
52799;DHT22;38667;42.872;74.622;2023-06-22T04:30:48;25.80;38.40
52799;DHT22;38667;42.872;74.622;2023-06-22T04:33:15;25.80;38.40
52799;DHT22;38667;42.872;74.622;2023-06-22T04:35:45;25.50;38.30
52799;DHT22;38667;42.872;74.622;2023-06-22T04:38:12;25.30;38.40
52799;DHT22;38667;42.872;74.622;2023-06-22T04:40:39;25.50;36.80
52799;DHT22;38667;42.872;74.622;2023-06-22T04:43:05;25.20;36.30
52799;DHT22;38667;42.872;74.622;2023-06-22T04:45:32;25.10;36.10
52799;DHT22;38667;42.872;74.622;2023-06-22T04:47:58;25.10;37.50
52799;DHT22;38667;42.872;74.622;2023-06-22T04:50:25;25.10;34.80
52799;DHT22;38667;42.872;74.622;2023-06-22T04:52:53;25.10;35.20
52799;DHT22;38667;42.872;74.622;2023-06-22T04:55:20;25.20;34.60
52799;DHT22;38667;42.872;74.622;2023-06-22T04:57:46;25.20;34.70
52799;DHT22;38667;42.872;74.622;2023-06-22T05:00:14;25.00;34.90
52799;DHT22;38667;42.872;74.622;2023-06-22T05:02:40;25.10;35.90
52799;DHT22;38667;42.872;74.622;2023-06-22T05:05:07;25.50;34.50
52799;DHT22;38667;42.872;74.622;2023-06-22T05:07:34;25.60;33.60
52799;DHT22;38667;42.872;74.622;2023-06-22T05:10:03;25.50;33.50
52799;DHT22;38667;42.872;74.622;2023-06-22T05:12:30;25.60;31.00
52799;DHT22;38667;42.872;74.622;2023-06-22T05:14:56;25.80;31.40
52799;DHT22;38667;42.872;74.622;2023-06-22T05:17:23;25.80;32.50
52799;DHT22;38667;42.872;74.622;2023-06-22T05:19:50;25.70;32.20
52799;DHT22;38667;42.872;74.622;2023-06-22T05:22:16;25.80;30.90
52799;DHT22;38667;42.872;74.622;2023-06-22T05:24:43;25.80;31.20
52799;DHT22;38667;42.872;74.622;2023-06-22T05:27:11;25.90;31.80
52799;DHT22;38667;42.872;74.622;2023-06-22T05:29:38;26.00;33.20
52799;DHT22;38667;42.872;74.622;2023-06-22T05:32:05;26.10;33.20
52799;DHT22;38667;42.872;74.622;2023-06-22T05:34:31;26.40;32.50
52799;DHT22;38667;42.872;74.622;2023-06-22T05:36:57;26.60;30.80
52799;DHT22;38667;42.872;74.622;2023-06-22T05:39:24;26.60;32.50
52799;DHT22;38667;42.872;74.622;2023-06-22T05:41:50;26.80;32.70
52799;DHT22;38667;42.872;74.622;2023-06-22T05:44:18;27.20;32.30
52799;DHT22;38667;42.872;74.622;2023-06-22T05:46:45;27.80;30.50
52799;DHT22;38667;42.872;74.622;2023-06-22T05:49:12;28.00;30.80
52799;DHT22;38667;42.872;74.622;2023-06-22T05:51:39;28.20;31.00
52799;DHT22;38667;42.872;74.622;2023-06-22T05:54:05;28.30;30.50
52799;DHT22;38667;42.872;74.622;2023-06-22T05:56:32;28.20;31.00
52799;DHT22;38667;42.872;74.622;2023-06-22T05:58:58;28.50;31.10
52799;DHT22;38667;42.872;74.622;2023-06-22T06:01:26;28.80;30.00
52799;DHT22;38667;42.872;74.622;2023-06-22T06:03:52;29.20;31.00
52799;DHT22;38667;42.872;74.622;2023-06-22T06:06:19;29.50;29.60
52799;DHT22;38667;42.872;74.622;2023-06-22T06:08:45;29.60;30.60
52799;DHT22;38667;42.872;74.622;2023-06-22T06:11:11;29.80;32.10
52799;DHT22;38667;42.872;74.622;2023-06-22T06:13:38;29.80;30.40
52799;DHT22;38667;42.872;74.622;2023-06-22T06:16:04;29.80;30.50
52799;DHT22;38667;42.872;74.622;2023-06-22T06:18:32;29.60;30.40
52799;DHT22;38667;42.872;74.622;2023-06-22T06:20:59;29.30;30.70
52799;DHT22;38667;42.872;74.622;2023-06-22T06:23:25;29.30;30.30
52799;DHT22;38667;42.872;74.622;2023-06-22T06:25:51;29.40;30.50
52799;DHT22;38667;42.872;74.622;2023-06-22T06:28:17;29.40;31.10
52799;DHT22;38667;42.872;74.622;2023-06-22T06:30:44;29.60;31.10
52799;DHT22;38667;42.872;74.622;2023-06-22T06:33:10;29.70;31.30
52799;DHT22;38667;42.872;74.622;2023-06-22T06:35:38;29.70;29.60
52799;DHT22;38667;42.872;74.622;2023-06-22T06:38:04;29.70;31.00
52799;DHT22;38667;42.872;74.622;2023-06-22T06:40:30;29.80;31.10
52799;DHT22;38667;42.872;74.622;2023-06-22T06:42:57;29.90;30.60
52799;DHT22;38667;42.872;74.622;2023-06-22T06:45:25;29.70;31.50
52799;DHT22;38667;42.872;74.622;2023-06-22T06:47:52;29.70;31.80
52799;DHT22;38667;42.872;74.622;2023-06-22T06:50:18;29.80;32.10
52799;DHT22;38667;42.872;74.622;2023-06-22T06:52:46;30.10;32.30
52799;DHT22;38667;42.872;74.622;2023-06-22T06:55:13;30.20;30.80
52799;DHT22;38667;42.872;74.622;2023-06-22T06:57:39;30.30;31.00
52799;DHT22;38667;42.872;74.622;2023-06-22T07:00:08;30.50;31.10
52799;DHT22;38667;42.872;74.622;2023-06-22T07:02:35;30.50;31.00
52799;DHT22;38667;42.872;74.622;2023-06-22T07:05:01;30.40;33.00
52799;DHT22;38667;42.872;74.622;2023-06-22T07:07:27;30.20;33.00
52799;DHT22;38667;42.872;74.622;2023-06-22T07:09:58;30.00;32.90
52799;DHT22;38667;42.872;74.622;2023-06-22T07:12:24;30.00;31.50
52799;DHT22;38667;42.872;74.622;2023-06-22T07:14:51;30.10;32.80
52799;DHT22;38667;42.872;74.622;2023-06-22T07:17:18;30.00;33.10
52799;DHT22;38667;42.872;74.622;2023-06-22T07:19:44;30.10;33.20
52799;DHT22;38667;42.872;74.622;2023-06-22T07:22:10;30.20;32.90
52799;DHT22;38667;42.872;74.622;2023-06-22T07:24:37;30.30;32.00
52799;DHT22;38667;42.872;74.622;2023-06-22T07:27:05;30.20;32.50
52799;DHT22;38667;42.872;74.622;2023-06-22T07:29:32;30.00;33.40
52799;DHT22;38667;42.872;74.622;2023-06-22T07:31:58;30.20;33.70
52799;DHT22;38667;42.872;74.622;2023-06-22T07:34:24;30.50;33.10
52799;DHT22;38667;42.872;74.622;2023-06-22T07:36:50;30.80;32.60
52799;DHT22;38667;42.872;74.622;2023-06-22T07:39:17;30.70;32.00
52799;DHT22;38667;42.872;74.622;2023-06-22T07:41:43;30.80;32.70
52799;DHT22;38667;42.872;74.622;2023-06-22T07:44:11;30.40;33.00
52799;DHT22;38667;42.872;74.622;2023-06-22T07:46:37;30.40;33.90
52799;DHT22;38667;42.872;74.622;2023-06-22T07:49:04;30.60;33.60
52799;DHT22;38667;42.872;74.622;2023-06-22T07:51:30;30.90;32.40
52799;DHT22;38667;42.872;74.622;2023-06-22T07:53:56;31.30;32.20
52799;DHT22;38667;42.872;74.622;2023-06-22T07:56:22;31.60;31.90
52799;DHT22;38667;42.872;74.622;2023-06-22T07:58:49;31.70;29.80
52799;DHT22;38667;42.872;74.622;2023-06-22T08:01:17;31.30;31.50
52799;DHT22;38667;42.872;74.622;2023-06-22T08:03:43;31.10;32.60
52799;DHT22;38667;42.872;74.622;2023-06-22T08:06:10;30.90;32.30
52799;DHT22;38667;42.872;74.622;2023-06-22T08:08:36;31.00;32.50
52799;DHT22;38667;42.872;74.622;2023-06-22T08:11:03;31.20;31.60
52799;DHT22;38667;42.872;74.622;2023-06-22T08:13:29;31.20;30.30
52799;DHT22;38667;42.872;74.622;2023-06-22T08:15:56;31.10;31.80
52799;DHT22;38667;42.872;74.622;2023-06-22T08:18:24;31.20;32.50
52799;DHT22;38667;42.872;74.622;2023-06-22T08:20:50;31.20;32.20
52799;DHT22;38667;42.872;74.622;2023-06-22T08:23:16;31.20;33.00
52799;DHT22;38667;42.872;74.622;2023-06-22T08:25:43;31.40;32.90
52799;DHT22;38667;42.872;74.622;2023-06-22T08:28:09;31.80;32.10
52799;DHT22;38667;42.872;74.622;2023-06-22T08:30:35;31.90;32.10
52799;DHT22;38667;42.872;74.622;2023-06-22T08:33:02;31.90;30.70
52799;DHT22;38667;42.872;74.622;2023-06-22T08:35:30;31.60;31.30
52799;DHT22;38667;42.872;74.622;2023-06-22T08:37:56;31.50;32.60
52799;DHT22;38667;42.872;74.622;2023-06-22T08:40:23;31.10;33.80
52799;DHT22;38667;42.872;74.622;2023-06-22T08:42:49;30.10;33.20
52799;DHT22;38667;42.872;74.622;2023-06-22T08:45:16;29.20;33.10
52799;DHT22;38667;42.872;74.622;2023-06-22T08:47:43;28.70;32.60
52799;DHT22;38667;42.872;74.622;2023-06-22T08:50:10;28.70;32.70
52799;DHT22;38667;42.872;74.622;2023-06-22T08:52:40;28.50;33.50
52799;DHT22;38667;42.872;74.622;2023-06-22T08:55:07;28.70;32.10
52799;DHT22;38667;42.872;74.622;2023-06-22T08:57:34;28.70;33.10
52799;DHT22;38667;42.872;74.622;2023-06-22T09:00:00;28.50;33.60
52799;DHT22;38667;42.872;74.622;2023-06-22T09:02:27;28.40;33.40
52799;DHT22;38667;42.872;74.622;2023-06-22T09:04:53;28.30;34.10
52799;DHT22;38667;42.872;74.622;2023-06-22T09:07:19;28.40;34.30
52799;DHT22;38667;42.872;74.622;2023-06-22T09:09:47;28.30;33.50
52799;DHT22;38667;42.872;74.622;2023-06-22T09:12:14;28.30;33.80
52799;DHT22;38667;42.872;74.622;2023-06-22T09:14:40;28.20;34.70
52799;DHT22;38667;42.872;74.622;2023-06-22T09:17:07;28.20;34.20
52799;DHT22;38667;42.872;74.622;2023-06-22T09:19:33;28.20;34.20
52799;DHT22;38667;42.872;74.622;2023-06-22T09:21:59;28.40;33.60
52799;DHT22;38667;42.872;74.622;2023-06-22T09:24:26;28.60;33.80
52799;DHT22;38667;42.872;74.622;2023-06-22T09:26:54;28.70;33.80
52799;DHT22;38667;42.872;74.622;2023-06-22T09:29:20;28.50;34.50
52799;DHT22;38667;42.872;74.622;2023-06-22T09:31:46;28.40;33.20
52799;DHT22;38667;42.872;74.622;2023-06-22T09:34:13;28.30;34.40
52799;DHT22;38667;42.872;74.622;2023-06-22T09:36:40;28.20;33.10
52799;DHT22;38667;42.872;74.622;2023-06-22T09:39:07;28.20;33.10
52799;DHT22;38667;42.872;74.622;2023-06-22T09:41:33;28.20;33.40
52799;DHT22;38667;42.872;74.622;2023-06-22T09:44:01;28.10;33.10
52799;DHT22;38667;42.872;74.622;2023-06-22T09:46:27;28.00;33.50
52799;DHT22;38667;42.872;74.622;2023-06-22T09:48:54;28.00;33.90
52799;DHT22;38667;42.872;74.622;2023-06-22T09:51:20;28.10;33.60
52799;DHT22;38667;42.872;74.622;2023-06-22T09:53:46;28.20;33.10
52799;DHT22;38667;42.872;74.622;2023-06-22T09:56:13;28.40;34.00
52799;DHT22;38667;42.872;74.622;2023-06-22T09:58:39;28.30;33.50
52799;DHT22;38667;42.872;74.622;2023-06-22T10:01:07;28.00;33.90
52799;DHT22;38667;42.872;74.622;2023-06-22T10:03:33;28.00;33.40
52799;DHT22;38667;42.872;74.622;2023-06-22T10:06:00;28.00;32.80
52799;DHT22;38667;42.872;74.622;2023-06-22T10:08:26;27.90;32.50
52799;DHT22;38667;42.872;74.622;2023-06-22T10:10:52;27.90;32.10
52799;DHT22;38667;42.872;74.622;2023-06-22T10:13:19;27.90;32.30
52799;DHT22;38667;42.872;74.622;2023-06-22T10:15:45;27.90;32.50
52799;DHT22;38667;42.872;74.622;2023-06-22T10:18:13;27.90;32.40
52799;DHT22;38667;42.872;74.622;2023-06-22T10:20:39;27.80;33.10
52799;DHT22;38667;42.872;74.622;2023-06-22T10:23:06;27.90;32.60
52799;DHT22;38667;42.872;74.622;2023-06-22T10:25:32;28.00;32.40
52799;DHT22;38667;42.872;74.622;2023-06-22T10:27:59;27.90;32.10
52799;DHT22;38667;42.872;74.622;2023-06-22T10:30:26;28.20;32.30
52799;DHT22;38667;42.872;74.622;2023-06-22T10:32:52;28.00;32.40
52799;DHT22;38667;42.872;74.622;2023-06-22T10:35:20;27.80;32.20
52799;DHT22;38667;42.872;74.622;2023-06-22T10:37:48;27.70;32.40
52799;DHT22;38667;42.872;74.622;2023-06-22T10:40:15;27.90;31.80
52799;DHT22;38667;42.872;74.622;2023-06-22T10:42:42;27.90;32.30
52799;DHT22;38667;42.872;74.622;2023-06-22T10:45:09;27.70;32.20
52799;DHT22;38667;42.872;74.622;2023-06-22T10:47:36;27.70;32.50
52799;DHT22;38667;42.872;74.622;2023-06-22T10:50:03;27.60;32.50
52799;DHT22;38667;42.872;74.622;2023-06-22T10:52:31;27.60;32.40
52799;DHT22;38667;42.872;74.622;2023-06-22T10:54:57;27.60;32.40
52799;DHT22;38667;42.872;74.622;2023-06-22T10:57:23;27.60;31.70
52799;DHT22;38667;42.872;74.622;2023-06-22T10:59:50;27.70;31.30
52799;DHT22;38667;42.872;74.622;2023-06-22T11:02:16;27.70;31.50
52799;DHT22;38667;42.872;74.622;2023-06-22T11:04:43;27.80;30.80
52799;DHT22;38667;42.872;74.622;2023-06-22T11:07:10;27.60;31.40
52799;DHT22;38667;42.872;74.622;2023-06-22T11:09:37;27.70;31.00
52799;DHT22;38667;42.872;74.622;2023-06-22T11:12:05;27.70;30.30
52799;DHT22;38667;42.872;74.622;2023-06-22T11:14:31;27.70;30.50
52799;DHT22;38667;42.872;74.622;2023-06-22T11:16:58;27.90;30.50
52799;DHT22;38667;42.872;74.622;2023-06-22T11:19:24;27.80;29.90
52799;DHT22;38667;42.872;74.622;2023-06-22T11:21:50;27.90;31.20
52799;DHT22;38667;42.872;74.622;2023-06-22T11:24:17;28.00;30.70
52799;DHT22;38667;42.872;74.622;2023-06-22T11:26:44;28.10;29.70
52799;DHT22;38667;42.872;74.622;2023-06-22T11:29:11;27.90;31.00
52799;DHT22;38667;42.872;74.622;2023-06-22T11:31:37;27.80;30.50
52799;DHT22;38667;42.872;74.622;2023-06-22T11:34:04;27.80;30.20
52799;DHT22;38667;42.872;74.622;2023-06-22T11:36:30;27.70;29.50
52799;DHT22;38667;42.872;74.622;2023-06-22T11:38:56;27.80;30.20
52799;DHT22;38667;42.872;74.622;2023-06-22T11:41:23;27.80;30.70
52799;DHT22;38667;42.872;74.622;2023-06-22T11:43:51;27.80;29.80
52799;DHT22;38667;42.872;74.622;2023-06-22T11:46:17;28.00;29.90
52799;DHT22;38667;42.872;74.622;2023-06-22T11:48:43;28.10;29.20
52799;DHT22;38667;42.872;74.622;2023-06-22T11:51:10;28.10;30.00
52799;DHT22;38667;42.872;74.622;2023-06-22T11:53:36;27.90;30.00
52799;DHT22;38667;42.872;74.622;2023-06-22T11:56:02;27.70;30.00
52799;DHT22;38667;42.872;74.622;2023-06-22T11:58:29;27.70;30.00
52799;DHT22;38667;42.872;74.622;2023-06-22T12:00:57;27.60;30.10
52799;DHT22;38667;42.872;74.622;2023-06-22T12:03:23;27.60;30.20
52799;DHT22;38667;42.872;74.622;2023-06-22T12:05:50;27.50;30.30
52799;DHT22;38667;42.872;74.622;2023-06-22T12:08:16;27.40;30.20
52799;DHT22;38667;42.872;74.622;2023-06-22T12:10:43;27.40;30.30
52799;DHT22;38667;42.872;74.622;2023-06-22T12:13:09;27.40;30.30
52799;DHT22;38667;42.872;74.622;2023-06-22T12:15:35;27.30;31.00
52799;DHT22;38667;42.872;74.622;2023-06-22T12:18:03;27.30;30.40
52799;DHT22;38667;42.872;74.622;2023-06-22T12:20:30;27.30;29.70
52799;DHT22;38667;42.872;74.622;2023-06-22T12:22:58;27.40;29.80
52799;DHT22;38667;42.872;74.622;2023-06-22T12:25:24;27.30;30.70
52799;DHT22;38667;42.872;74.622;2023-06-22T12:27:51;27.30;30.70
52799;DHT22;38667;42.872;74.622;2023-06-22T12:30:17;27.20;30.80
52799;DHT22;38667;42.872;74.622;2023-06-22T12:32:43;27.20;30.10
52799;DHT22;38667;42.872;74.622;2023-06-22T12:35:11;27.30;30.40
52799;DHT22;38667;42.872;74.622;2023-06-22T12:37:37;27.40;30.20
52799;DHT22;38667;42.872;74.622;2023-06-22T12:40:05;27.40;30.50
52799;DHT22;38667;42.872;74.622;2023-06-22T12:42:31;27.40;30.10
52799;DHT22;38667;42.872;74.622;2023-06-22T12:44:57;27.30;31.00
52799;DHT22;38667;42.872;74.622;2023-06-22T12:47:24;27.30;31.00
52799;DHT22;38667;42.872;74.622;2023-06-22T12:49:50;27.30;30.70
52799;DHT22;38667;42.872;74.622;2023-06-22T12:52:18;27.20;30.70
52799;DHT22;38667;42.872;74.622;2023-06-22T12:54:44;27.20;31.10
52799;DHT22;38667;42.872;74.622;2023-06-22T12:57:10;27.20;31.30
52799;DHT22;38667;42.872;74.622;2023-06-22T12:59:37;27.20;31.30
52799;DHT22;38667;42.872;74.622;2023-06-22T13:02:03;27.20;31.10
52799;DHT22;38667;42.872;74.622;2023-06-22T13:04:30;27.10;30.80
52799;DHT22;38667;42.872;74.622;2023-06-22T13:06:56;27.10;30.90
52799;DHT22;38667;42.872;74.622;2023-06-22T13:09:24;27.10;31.10
52799;DHT22;38667;42.872;74.622;2023-06-22T13:11:50;27.20;30.90
52799;DHT22;38667;42.872;74.622;2023-06-22T13:14:17;27.20;31.90
52799;DHT22;38667;42.872;74.622;2023-06-22T13:16:43;27.10;32.10
52799;DHT22;38667;42.872;74.622;2023-06-22T13:19:09;27.20;31.40
52799;DHT22;38667;42.872;74.622;2023-06-22T13:21:36;27.20;32.20
52799;DHT22;38667;42.872;74.622;2023-06-22T13:24:02;27.20;32.50
52799;DHT22;38667;42.872;74.622;2023-06-22T13:26:30;26.90;41.60
52799;DHT22;38667;42.872;74.622;2023-06-22T13:28:56;26.50;37.60
52799;DHT22;38667;42.872;74.622;2023-06-22T13:31:23;26.20;44.00
52799;DHT22;38667;42.872;74.622;2023-06-22T13:33:49;26.00;41.00
52799;DHT22;38667;42.872;74.622;2023-06-22T13:36:15;25.90;43.50
52799;DHT22;38667;42.872;74.622;2023-06-22T13:38:41;25.80;43.20
52799;DHT22;38667;42.872;74.622;2023-06-22T13:41:08;25.80;38.50
52799;DHT22;38667;42.872;74.622;2023-06-22T13:43:36;26.00;39.20
52799;DHT22;38667;42.872;74.622;2023-06-22T13:46:02;26.10;39.40
52799;DHT22;38667;42.872;74.622;2023-06-22T13:48:28;26.10;40.90
52799;DHT22;38667;42.872;74.622;2023-06-22T13:50:55;26.20;41.40
52799;DHT22;38667;42.872;74.622;2023-06-22T13:53:21;26.20;38.30
52799;DHT22;38667;42.872;74.622;2023-06-22T13:55:47;26.30;36.80
52799;DHT22;38667;42.872;74.622;2023-06-22T13:58:14;26.50;35.50
52799;DHT22;38667;42.872;74.622;2023-06-22T14:00:42;26.60;33.10
52799;DHT22;38667;42.872;74.622;2023-06-22T14:03:08;26.80;32.40
52799;DHT22;38667;42.872;74.622;2023-06-22T14:05:34;27.00;32.60
52799;DHT22;38667;42.872;74.622;2023-06-22T14:08:01;27.00;32.60
52799;DHT22;38667;42.872;74.622;2023-06-22T14:10:27;27.00;32.80
52799;DHT22;38667;42.872;74.622;2023-06-22T14:12:53;27.00;33.30
52799;DHT22;38667;42.872;74.622;2023-06-22T14:15:20;26.90;32.50
52799;DHT22;38667;42.872;74.622;2023-06-22T14:17:47;26.90;32.40
52799;DHT22;38667;42.872;74.622;2023-06-22T14:20:14;26.90;33.00
52799;DHT22;38667;42.872;74.622;2023-06-22T14:22:40;26.80;36.80
52799;DHT22;38667;42.872;74.622;2023-06-22T14:25:07;26.60;35.80
52799;DHT22;38667;42.872;74.622;2023-06-22T14:27:33;26.50;34.80
52799;DHT22;38667;42.872;74.622;2023-06-22T14:30:00;26.50;34.50
52799;DHT22;38667;42.872;74.622;2023-06-22T14:32:28;26.50;34.70
52799;DHT22;38667;42.872;74.622;2023-06-22T14:34:56;26.50;34.60
52799;DHT22;38667;42.872;74.622;2023-06-22T14:37:22;26.40;34.70
52799;DHT22;38667;42.872;74.622;2023-06-22T14:39:49;26.40;34.60
52799;DHT22;38667;42.872;74.622;2023-06-22T14:42:15;26.40;35.10
52799;DHT22;38667;42.872;74.622;2023-06-22T14:44:41;26.40;34.50
52799;DHT22;38667;42.872;74.622;2023-06-22T14:47:08;26.40;35.00
52799;DHT22;38667;42.872;74.622;2023-06-22T14:49:34;26.30;35.60
52799;DHT22;38667;42.872;74.622;2023-06-22T14:52:02;26.30;35.60
52799;DHT22;38667;42.872;74.622;2023-06-22T14:54:29;26.30;35.60
52799;DHT22;38667;42.872;74.622;2023-06-22T14:56:55;26.30;36.40
52799;DHT22;38667;42.872;74.622;2023-06-22T14:59:21;26.20;35.80
52799;DHT22;38667;42.872;74.622;2023-06-22T15:01:48;26.20;36.20
52799;DHT22;38667;42.872;74.622;2023-06-22T15:04:14;26.20;36.00
52799;DHT22;38667;42.872;74.622;2023-06-22T15:06:41;26.20;35.60
52799;DHT22;38667;42.872;74.622;2023-06-22T15:09:09;26.20;35.50
52799;DHT22;38667;42.872;74.622;2023-06-22T15:11:35;26.20;34.90